sensor_id;sensor_type;location;lat;lon;timestamp;P1;durP1;ratioP1;P2;durP2;ratioP2
56039;SDS011;43937;41.366;2.072;2023-05-06T00:00:31;2.28;;;2.08;;
56039;SDS011;43937;41.366;2.072;2023-05-06T00:03:27;8.25;;;2.50;;
56039;SDS011;43937;41.366;2.072;2023-05-06T00:05:52;4.20;;;2.97;;
56039;SDS011;43937;41.366;2.072;2023-05-06T00:08:18;3.35;;;2.30;;
56039;SDS011;43937;41.366;2.072;2023-05-06T00:10:44;4.70;;;2.25;;
56039;SDS011;43937;41.366;2.072;2023-05-06T00:13:09;5.72;;;2.35;;
56039;SDS011;43937;41.366;2.072;2023-05-06T00:15:35;2.30;;;1.60;;
56039;SDS011;43937;41.366;2.072;2023-05-06T00:18:00;3.83;;;2.10;;
56039;SDS011;43937;41.366;2.072;2023-05-06T00:20:27;4.60;;;2.22;;
56039;SDS011;43937;41.366;2.072;2023-05-06T00:22:53;3.60;;;3.30;;
56039;SDS011;43937;41.366;2.072;2023-05-06T00:25:19;4.50;;;2.95;;
56039;SDS011;43937;41.366;2.072;2023-05-06T00:27:44;4.20;;;2.47;;
56039;SDS011;43937;41.366;2.072;2023-05-06T00:30:10;3.63;;;2.83;;
56039;SDS011;43937;41.366;2.072;2023-05-06T00:32:36;5.57;;;2.50;;
56039;SDS011;43937;41.366;2.072;2023-05-06T00:35:02;12.95;;;3.20;;
56039;SDS011;43937;41.366;2.072;2023-05-06T00:37:27;4.40;;;2.67;;
56039;SDS011;43937;41.366;2.072;2023-05-06T00:39:53;2.85;;;2.33;;
56039;SDS011;43937;41.366;2.072;2023-05-06T00:42:19;5.18;;;2.90;;
56039;SDS011;43937;41.366;2.072;2023-05-06T00:44:47;12.13;;;3.75;;
56039;SDS011;43937;41.366;2.072;2023-05-06T00:47:13;6.38;;;3.50;;
56039;SDS011;43937;41.366;2.072;2023-05-06T00:49:39;3.85;;;3.13;;
56039;SDS011;43937;41.366;2.072;2023-05-06T00:52:05;3.22;;;2.92;;
56039;SDS011;43937;41.366;2.072;2023-05-06T00:54:31;2.85;;;2.65;;
56039;SDS011;43937;41.366;2.072;2023-05-06T00:56:57;17.27;;;2.60;;
56039;SDS011;43937;41.366;2.072;2023-05-06T00:59:22;5.13;;;3.25;;
56039;SDS011;43937;41.366;2.072;2023-05-06T01:01:48;3.22;;;2.17;;
56039;SDS011;43937;41.366;2.072;2023-05-06T01:04:14;4.03;;;2.85;;
56039;SDS011;43937;41.366;2.072;2023-05-06T01:09:31;5.90;;;3.65;;
56039;SDS011;43937;41.366;2.072;2023-05-06T01:12:06;6.97;;;4.05;;
56039;SDS011;43937;41.366;2.072;2023-05-06T01:17:34;8.15;;;2.83;;
56039;SDS011;43937;41.366;2.072;2023-05-06T01:20:02;3.63;;;3.20;;
56039;SDS011;43937;41.366;2.072;2023-05-06T01:22:31;5.63;;;3.25;;
56039;SDS011;43937;41.366;2.072;2023-05-06T01:25:00;3.45;;;2.40;;
56039;SDS011;43937;41.366;2.072;2023-05-06T01:27:25;2.90;;;2.50;;
56039;SDS011;43937;41.366;2.072;2023-05-06T01:29:52;2.90;;;2.60;;
56039;SDS011;43937;41.366;2.072;2023-05-06T01:32:25;6.88;;;2.95;;
56039;SDS011;43937;41.366;2.072;2023-05-06T01:35:05;7.05;;;2.88;;
56039;SDS011;43937;41.366;2.072;2023-05-06T01:40:29;3.10;;;2.65;;
56039;SDS011;43937;41.366;2.072;2023-05-06T01:42:57;2.50;;;2.00;;
56039;SDS011;43937;41.366;2.072;2023-05-06T01:45:27;3.95;;;1.80;;
56039;SDS011;43937;41.366;2.072;2023-05-06T01:47:55;3.42;;;2.72;;
56039;SDS011;43937;41.366;2.072;2023-05-06T01:50:21;3.35;;;2.28;;
56039;SDS011;43937;41.366;2.072;2023-05-06T01:53:00;1.65;;;1.55;;
56039;SDS011;43937;41.366;2.072;2023-05-06T01:55:26;4.80;;;2.38;;
56039;SDS011;43937;41.366;2.072;2023-05-06T01:57:52;2.78;;;2.38;;
56039;SDS011;43937;41.366;2.072;2023-05-06T02:00:18;1.77;;;1.50;;
56039;SDS011;43937;41.366;2.072;2023-05-06T02:02:44;6.85;;;2.45;;
56039;SDS011;43937;41.366;2.072;2023-05-06T02:05:09;3.28;;;2.40;;
56039;SDS011;43937;41.366;2.072;2023-05-06T02:07:35;5.13;;;2.60;;
56039;SDS011;43937;41.366;2.072;2023-05-06T02:10:00;4.00;;;2.40;;
56039;SDS011;43937;41.366;2.072;2023-05-06T02:12:25;2.75;;;1.95;;
56039;SDS011;43937;41.366;2.072;2023-05-06T02:14:51;6.05;;;2.67;;
56039;SDS011;43937;41.366;2.072;2023-05-06T02:17:16;2.55;;;2.35;;
56039;SDS011;43937;41.366;2.072;2023-05-06T02:19:42;2.55;;;1.83;;
56039;SDS011;43937;41.366;2.072;2023-05-06T02:22:07;2.58;;;2.30;;
56039;SDS011;43937;41.366;2.072;2023-05-06T02:24:32;3.50;;;2.58;;
56039;SDS011;43937;41.366;2.072;2023-05-06T02:26:58;7.68;;;2.10;;
56039;SDS011;43937;41.366;2.072;2023-05-06T02:29:23;2.15;;;2.03;;
56039;SDS011;43937;41.366;2.072;2023-05-06T02:31:49;2.80;;;2.00;;
56039;SDS011;43937;41.366;2.072;2023-05-06T02:34:15;4.13;;;2.10;;
56039;SDS011;43937;41.366;2.072;2023-05-06T02:36:41;1.60;;;1.10;;
56039;SDS011;43937;41.366;2.072;2023-05-06T02:39:06;2.08;;;1.88;;
56039;SDS011;43937;41.366;2.072;2023-05-06T02:41:32;2.40;;;2.15;;
56039;SDS011;43937;41.366;2.072;2023-05-06T02:43:57;3.00;;;1.98;;
56039;SDS011;43937;41.366;2.072;2023-05-06T02:46:23;1.75;;;1.42;;
56039;SDS011;43937;41.366;2.072;2023-05-06T02:48:48;2.03;;;1.60;;
56039;SDS011;43937;41.366;2.072;2023-05-06T02:51:13;3.70;;;2.80;;
56039;SDS011;43937;41.366;2.072;2023-05-06T02:53:39;4.05;;;2.45;;
56039;SDS011;43937;41.366;2.072;2023-05-06T02:56:05;4.35;;;2.75;;
56039;SDS011;43937;41.366;2.072;2023-05-06T02:58:31;2.25;;;2.05;;
56039;SDS011;43937;41.366;2.072;2023-05-06T03:00:56;5.28;;;3.13;;
56039;SDS011;43937;41.366;2.072;2023-05-06T03:03:22;4.68;;;3.38;;
56039;SDS011;43937;41.366;2.072;2023-05-06T03:05:47;6.40;;;3.25;;
56039;SDS011;43937;41.366;2.072;2023-05-06T03:08:12;3.90;;;2.75;;
56039;SDS011;43937;41.366;2.072;2023-05-06T03:10:38;7.93;;;4.03;;
56039;SDS011;43937;41.366;2.072;2023-05-06T03:13:03;3.97;;;3.20;;
56039;SDS011;43937;41.366;2.072;2023-05-06T03:15:29;6.07;;;4.03;;
56039;SDS011;43937;41.366;2.072;2023-05-06T03:17:56;5.72;;;3.30;;
56039;SDS011;43937;41.366;2.072;2023-05-06T03:20:21;5.20;;;2.88;;
56039;SDS011;43937;41.366;2.072;2023-05-06T03:25:12;3.15;;;2.50;;
56039;SDS011;43937;41.366;2.072;2023-05-06T03:27:37;9.27;;;3.35;;
56039;SDS011;43937;41.366;2.072;2023-05-06T03:30:03;3.47;;;3.13;;
56039;SDS011;43937;41.366;2.072;2023-05-06T03:32:29;7.88;;;3.08;;
56039;SDS011;43937;41.366;2.072;2023-05-06T03:34:54;3.13;;;2.83;;
56039;SDS011;43937;41.366;2.072;2023-05-06T03:37:20;4.18;;;2.53;;
56039;SDS011;43937;41.366;2.072;2023-05-06T03:39:46;4.63;;;3.35;;
56039;SDS011;43937;41.366;2.072;2023-05-06T03:42:11;4.43;;;3.15;;
56039;SDS011;43937;41.366;2.072;2023-05-06T03:44:36;14.00;;;3.85;;
56039;SDS011;43937;41.366;2.072;2023-05-06T03:48:19;4.85;;;3.22;;
56039;SDS011;43937;41.366;2.072;2023-05-06T03:50:45;4.03;;;3.58;;
56039;SDS011;43937;41.366;2.072;2023-05-06T03:53:11;4.70;;;3.47;;
56039;SDS011;43937;41.366;2.072;2023-05-06T03:55:36;4.45;;;3.08;;
56039;SDS011;43937;41.366;2.072;2023-05-06T03:58:02;9.38;;;3.40;;
56039;SDS011;43937;41.366;2.072;2023-05-06T04:00:27;4.43;;;3.95;;
56039;SDS011;43937;41.366;2.072;2023-05-06T04:02:53;4.88;;;4.38;;
56039;SDS011;43937;41.366;2.072;2023-05-06T04:05:18;9.00;;;6.47;;
56039;SDS011;43937;41.366;2.072;2023-05-06T04:07:44;13.80;;;6.82;;
56039;SDS011;43937;41.366;2.072;2023-05-06T04:10:09;17.35;;;7.55;;
56039;SDS011;43937;41.366;2.072;2023-05-06T04:12:35;12.70;;;8.05;;
56039;SDS011;43937;41.366;2.072;2023-05-06T04:15:01;12.55;;;9.02;;
56039;SDS011;43937;41.366;2.072;2023-05-06T04:17:27;12.95;;;8.43;;
56039;SDS011;43937;41.366;2.072;2023-05-06T04:19:52;13.95;;;6.68;;
56039;SDS011;43937;41.366;2.072;2023-05-06T04:22:18;14.65;;;7.88;;
56039;SDS011;43937;41.366;2.072;2023-05-06T04:24:44;12.48;;;6.95;;
56039;SDS011;43937;41.366;2.072;2023-05-06T04:27:09;12.25;;;6.45;;
56039;SDS011;43937;41.366;2.072;2023-05-06T04:29:35;6.38;;;5.10;;
56039;SDS011;43937;41.366;2.072;2023-05-06T04:32:02;7.00;;;4.20;;
56039;SDS011;43937;41.366;2.072;2023-05-06T04:34:28;4.35;;;3.90;;
56039;SDS011;43937;41.366;2.072;2023-05-06T04:38:18;3.78;;;3.33;;
56039;SDS011;43937;41.366;2.072;2023-05-06T04:40:49;6.88;;;3.33;;
56039;SDS011;43937;41.366;2.072;2023-05-06T04:43:15;4.18;;;3.30;;
56039;SDS011;43937;41.366;2.072;2023-05-06T04:45:41;5.18;;;3.33;;
56039;SDS011;43937;41.366;2.072;2023-05-06T04:48:13;4.53;;;2.50;;
56039;SDS011;43937;41.366;2.072;2023-05-06T04:50:41;5.13;;;1.98;;
56039;SDS011;43937;41.366;2.072;2023-05-06T04:53:06;3.40;;;2.35;;
56039;SDS011;43937;41.366;2.072;2023-05-06T04:55:32;4.30;;;3.25;;
56039;SDS011;43937;41.366;2.072;2023-05-06T04:57:58;5.00;;;3.50;;
56039;SDS011;43937;41.366;2.072;2023-05-06T05:00:23;5.75;;;3.90;;
56039;SDS011;43937;41.366;2.072;2023-05-06T05:02:51;3.58;;;3.15;;
56039;SDS011;43937;41.366;2.072;2023-05-06T05:05:17;4.40;;;3.47;;
56039;SDS011;43937;41.366;2.072;2023-05-06T05:07:43;13.57;;;4.47;;
56039;SDS011;43937;41.366;2.072;2023-05-06T05:10:09;7.07;;;4.50;;
56039;SDS011;43937;41.366;2.072;2023-05-06T05:12:34;5.00;;;3.38;;
56039;SDS011;43937;41.366;2.072;2023-05-06T05:15:00;6.35;;;3.95;;
56039;SDS011;43937;41.366;2.072;2023-05-06T05:17:26;6.38;;;4.40;;
56039;SDS011;43937;41.366;2.072;2023-05-06T05:19:51;5.75;;;4.95;;
56039;SDS011;43937;41.366;2.072;2023-05-06T05:22:17;7.03;;;4.95;;
56039;SDS011;43937;41.366;2.072;2023-05-06T05:26:48;6.60;;;4.40;;
56039;SDS011;43937;41.366;2.072;2023-05-06T05:29:14;8.82;;;6.13;;
56039;SDS011;43937;41.366;2.072;2023-05-06T05:31:39;11.43;;;6.47;;
56039;SDS011;43937;41.366;2.072;2023-05-06T05:34:05;7.13;;;6.07;;
56039;SDS011;43937;41.366;2.072;2023-05-06T05:36:30;8.32;;;5.45;;
56039;SDS011;43937;41.366;2.072;2023-05-06T05:38:56;8.05;;;5.22;;
56039;SDS011;43937;41.366;2.072;2023-05-06T05:41:21;7.90;;;5.63;;
56039;SDS011;43937;41.366;2.072;2023-05-06T05:43:47;10.70;;;5.82;;
56039;SDS011;43937;41.366;2.072;2023-05-06T05:46:12;8.93;;;6.43;;
56039;SDS011;43937;41.366;2.072;2023-05-06T05:48:38;13.52;;;6.40;;
56039;SDS011;43937;41.366;2.072;2023-05-06T05:51:03;8.77;;;5.65;;
56039;SDS011;43937;41.366;2.072;2023-05-06T05:53:29;11.13;;;6.75;;
56039;SDS011;43937;41.366;2.072;2023-05-06T05:55:55;13.25;;;6.28;;
56039;SDS011;43937;41.366;2.072;2023-05-06T05:58:21;5.72;;;4.50;;
56039;SDS011;43937;41.366;2.072;2023-05-06T06:00:46;11.02;;;6.10;;
56039;SDS011;43937;41.366;2.072;2023-05-06T06:03:12;8.40;;;5.70;;
56039;SDS011;43937;41.366;2.072;2023-05-06T06:05:37;7.60;;;5.25;;
56039;SDS011;43937;41.366;2.072;2023-05-06T06:08:03;7.85;;;6.07;;
56039;SDS011;43937;41.366;2.072;2023-05-06T06:10:29;7.90;;;5.70;;
56039;SDS011;43937;41.366;2.072;2023-05-06T06:12:56;7.93;;;7.10;;
56039;SDS011;43937;41.366;2.072;2023-05-06T06:15:21;10.38;;;6.63;;
56039;SDS011;43937;41.366;2.072;2023-05-06T06:17:47;6.88;;;6.15;;
56039;SDS011;43937;41.366;2.072;2023-05-06T06:20:12;8.70;;;6.97;;
56039;SDS011;43937;41.366;2.072;2023-05-06T06:22:38;9.38;;;6.57;;
56039;SDS011;43937;41.366;2.072;2023-05-06T06:25:05;9.27;;;7.28;;
56039;SDS011;43937;41.366;2.072;2023-05-06T06:27:33;8.27;;;6.60;;
56039;SDS011;43937;41.366;2.072;2023-05-06T06:30:00;13.68;;;7.00;;
56039;SDS011;43937;41.366;2.072;2023-05-06T06:32:25;8.82;;;6.75;;
56039;SDS011;43937;41.366;2.072;2023-05-06T06:34:51;8.32;;;7.38;;
56039;SDS011;43937;41.366;2.072;2023-05-06T06:37:16;9.02;;;5.88;;
56039;SDS011;43937;41.366;2.072;2023-05-06T06:39:41;7.00;;;5.85;;
56039;SDS011;43937;41.366;2.072;2023-05-06T06:42:07;13.20;;;6.60;;
56039;SDS011;43937;41.366;2.072;2023-05-06T06:44:33;9.57;;;7.22;;
56039;SDS011;43937;41.366;2.072;2023-05-06T06:46:58;12.45;;;8.00;;
56039;SDS011;43937;41.366;2.072;2023-05-06T06:49:24;7.15;;;5.72;;
56039;SDS011;43937;41.366;2.072;2023-05-06T06:51:50;9.23;;;7.32;;
56039;SDS011;43937;41.366;2.072;2023-05-06T06:54:16;10.80;;;7.47;;
56039;SDS011;43937;41.366;2.072;2023-05-06T06:56:41;9.13;;;6.93;;
56039;SDS011;43937;41.366;2.072;2023-05-06T06:59:07;8.63;;;7.65;;
56039;SDS011;43937;41.366;2.072;2023-05-06T07:01:32;12.65;;;6.95;;
56039;SDS011;43937;41.366;2.072;2023-05-06T07:03:58;8.52;;;7.10;;
56039;SDS011;43937;41.366;2.072;2023-05-06T07:06:23;10.27;;;8.60;;
56039;SDS011;43937;41.366;2.072;2023-05-06T07:08:49;9.00;;;6.97;;
56039;SDS011;43937;41.366;2.072;2023-05-06T07:11:14;7.13;;;5.70;;
56039;SDS011;43937;41.366;2.072;2023-05-06T07:13:40;9.20;;;6.57;;
56039;SDS011;43937;41.366;2.072;2023-05-06T07:16:05;9.68;;;6.88;;
56039;SDS011;43937;41.366;2.072;2023-05-06T07:18:31;10.95;;;6.10;;
56039;SDS011;43937;41.366;2.072;2023-05-06T07:20:56;7.30;;;5.60;;
56039;SDS011;43937;41.366;2.072;2023-05-06T07:23:22;7.90;;;6.40;;
56039;SDS011;43937;41.366;2.072;2023-05-06T07:25:47;15.25;;;7.30;;
56039;SDS011;43937;41.366;2.072;2023-05-06T07:28:13;8.00;;;5.82;;
56039;SDS011;43937;41.366;2.072;2023-05-06T07:30:39;11.95;;;6.65;;
56039;SDS011;43937;41.366;2.072;2023-05-06T07:33:05;7.20;;;5.50;;
56039;SDS011;43937;41.366;2.072;2023-05-06T07:35:31;6.18;;;4.65;;
56039;SDS011;43937;41.366;2.072;2023-05-06T07:37:57;10.52;;;4.10;;
56039;SDS011;43937;41.366;2.072;2023-05-06T07:42:48;11.65;;;6.82;;
56039;SDS011;43937;41.366;2.072;2023-05-06T07:45:13;6.78;;;6.03;;
56039;SDS011;43937;41.366;2.072;2023-05-06T07:47:39;5.93;;;4.93;;
56039;SDS011;43937;41.366;2.072;2023-05-06T07:50:05;9.70;;;5.47;;
56039;SDS011;43937;41.366;2.072;2023-05-06T07:52:30;5.90;;;5.30;;
56039;SDS011;43937;41.366;2.072;2023-05-06T07:54:56;5.60;;;4.90;;
56039;SDS011;43937;41.366;2.072;2023-05-06T07:57:21;1.63;;;1.50;;
56039;SDS011;43937;41.366;2.072;2023-05-06T07:59:47;10.48;;;3.40;;
56039;SDS011;43937;41.366;2.072;2023-05-06T08:02:14;1.50;;;1.40;;
56039;SDS011;43937;41.366;2.072;2023-05-06T08:04:40;3.55;;;2.83;;
56039;SDS011;43937;41.366;2.072;2023-05-06T08:07:05;10.27;;;3.67;;
56039;SDS011;43937;41.366;2.072;2023-05-06T08:09:31;7.93;;;4.55;;
56039;SDS011;43937;41.366;2.072;2023-05-06T08:11:56;5.15;;;4.53;;
56039;SDS011;43937;41.366;2.072;2023-05-06T08:14:22;7.63;;;3.67;;
56039;SDS011;43937;41.366;2.072;2023-05-06T08:16:50;5.20;;;4.03;;
56039;SDS011;43937;41.366;2.072;2023-05-06T08:19:16;6.28;;;4.05;;
56039;SDS011;43937;41.366;2.072;2023-05-06T08:21:41;5.68;;;3.42;;
56039;SDS011;43937;41.366;2.072;2023-05-06T08:24:07;9.32;;;3.58;;
56039;SDS011;43937;41.366;2.072;2023-05-06T08:26:34;10.23;;;5.03;;
56039;SDS011;43937;41.366;2.072;2023-05-06T08:29:00;3.92;;;2.95;;
56039;SDS011;43937;41.366;2.072;2023-05-06T08:31:27;2.60;;;2.40;;
56039;SDS011;43937;41.366;2.072;2023-05-06T08:33:52;2.88;;;2.25;;
56039;SDS011;43937;41.366;2.072;2023-05-06T08:36:18;4.38;;;2.75;;
56039;SDS011;43937;41.366;2.072;2023-05-06T08:38:43;2.72;;;2.47;;
56039;SDS011;43937;41.366;2.072;2023-05-06T08:41:14;6.88;;;2.85;;
56039;SDS011;43937;41.366;2.072;2023-05-06T08:43:42;3.75;;;1.90;;
56039;SDS011;43937;41.366;2.072;2023-05-06T08:46:10;2.25;;;1.85;;
56039;SDS011;43937;41.366;2.072;2023-05-06T08:48:35;3.47;;;2.50;;
56039;SDS011;43937;41.366;2.072;2023-05-06T08:51:01;2.25;;;1.40;;
56039;SDS011;43937;41.366;2.072;2023-05-06T08:53:28;2.35;;;1.70;;
56039;SDS011;43937;41.366;2.072;2023-05-06T08:55:56;3.30;;;1.35;;
56039;SDS011;43937;41.366;2.072;2023-05-06T08:58:25;6.70;;;2.33;;
56039;SDS011;43937;41.366;2.072;2023-05-06T09:00:51;3.45;;;1.67;;
56039;SDS011;43937;41.366;2.072;2023-05-06T09:03:16;4.20;;;2.75;;
56039;SDS011;43937;41.366;2.072;2023-05-06T09:05:42;3.17;;;2.85;;
56039;SDS011;43937;41.366;2.072;2023-05-06T09:08:07;4.13;;;2.45;;
56039;SDS011;43937;41.366;2.072;2023-05-06T09:11:15;2.40;;;2.13;;
56039;SDS011;43937;41.366;2.072;2023-05-06T09:13:24;7.00;;;4.00;;
56039;SDS011;43937;41.366;2.072;2023-05-06T09:15:51;13.02;;;2.50;;
56039;SDS011;43937;41.366;2.072;2023-05-06T09:18:18;4.13;;;3.53;;
56039;SDS011;43937;41.366;2.072;2023-05-06T09:20:44;6.30;;;2.55;;
56039;SDS011;43937;41.366;2.072;2023-05-06T09:23:13;4.30;;;2.42;;
56039;SDS011;43937;41.366;2.072;2023-05-06T09:25:40;2.67;;;2.42;;
56039;SDS011;43937;41.366;2.072;2023-05-06T09:28:08;3.15;;;2.63;;
56039;SDS011;43937;41.366;2.072;2023-05-06T09:30:38;2.75;;;2.15;;
56039;SDS011;43937;41.366;2.072;2023-05-06T09:33:05;5.40;;;2.33;;
56039;SDS011;43937;41.366;2.072;2023-05-06T09:35:35;4.75;;;4.30;;
56039;SDS011;43937;41.366;2.072;2023-05-06T09:38:02;5.38;;;3.17;;
56039;SDS011;43937;41.366;2.072;2023-05-06T09:40:27;3.72;;;2.63;;
56039;SDS011;43937;41.366;2.072;2023-05-06T09:42:54;4.30;;;2.28;;
56039;SDS011;43937;41.366;2.072;2023-05-06T09:45:20;2.30;;;2.10;;
56039;SDS011;43937;41.366;2.072;2023-05-06T09:47:47;3.53;;;2.63;;
56039;SDS011;43937;41.366;2.072;2023-05-06T09:51:10;2.30;;;1.75;;
56039;SDS011;43937;41.366;2.072;2023-05-06T09:53:36;2.55;;;1.42;;
56039;SDS011;43937;41.366;2.072;2023-05-06T09:56:06;1.70;;;1.60;;
56039;SDS011;43937;41.366;2.072;2023-05-06T09:58:33;5.28;;;2.35;;
56039;SDS011;43937;41.366;2.072;2023-05-06T10:00:59;2.38;;;1.60;;
56039;SDS011;43937;41.366;2.072;2023-05-06T10:03:28;2.72;;;1.52;;
56039;SDS011;43937;41.366;2.072;2023-05-06T10:05:59;2.05;;;1.25;;
56039;SDS011;43937;41.366;2.072;2023-05-06T10:08:26;4.00;;;1.30;;
56039;SDS011;43937;41.366;2.072;2023-05-06T10:12:25;16.08;;;1.42;;
56039;SDS011;43937;41.366;2.072;2023-05-06T10:14:50;1.35;;;1.25;;
56039;SDS011;43937;41.366;2.072;2023-05-06T10:17:16;2.20;;;1.63;;
56039;SDS011;43937;41.366;2.072;2023-05-06T10:19:43;0.95;;;0.80;;
56039;SDS011;43937;41.366;2.072;2023-05-06T10:25:03;2.92;;;1.85;;
56039;SDS011;43937;41.366;2.072;2023-05-06T10:27:37;2.53;;;1.73;;
56039;SDS011;43937;41.366;2.072;2023-05-06T10:30:07;3.08;;;2.10;;
56039;SDS011;43937;41.366;2.072;2023-05-06T10:32:34;3.55;;;1.65;;
56039;SDS011;43937;41.366;2.072;2023-05-06T10:35:09;1.60;;;1.50;;
56039;SDS011;43937;41.366;2.072;2023-05-06T10:37:43;6.32;;;2.30;;
56039;SDS011;43937;41.366;2.072;2023-05-06T10:40:11;2.42;;;1.23;;
56039;SDS011;43937;41.366;2.072;2023-05-06T10:42:37;1.55;;;1.42;;
56039;SDS011;43937;41.366;2.072;2023-05-06T10:45:03;1.40;;;0.98;;
56039;SDS011;43937;41.366;2.072;2023-05-06T10:50:27;3.17;;;2.33;;
56039;SDS011;43937;41.366;2.072;2023-05-06T10:52:53;1.80;;;1.35;;
56039;SDS011;43937;41.366;2.072;2023-05-06T10:55:27;1.27;;;1.17;;
56039;SDS011;43937;41.366;2.072;2023-05-06T10:57:55;2.63;;;1.77;;
56039;SDS011;43937;41.366;2.072;2023-05-06T11:00:24;3.33;;;0.95;;
56039;SDS011;43937;41.366;2.072;2023-05-06T11:02:56;1.27;;;1.02;;
56039;SDS011;43937;41.366;2.072;2023-05-06T11:05:21;2.65;;;0.90;;
56039;SDS011;43937;41.366;2.072;2023-05-06T11:07:50;3.72;;;0.80;;
56039;SDS011;43937;41.366;2.072;2023-05-06T11:10:29;0.80;;;0.50;;
56039;SDS011;43937;41.366;2.072;2023-05-06T11:12:56;2.97;;;0.90;;
56039;SDS011;43937;41.366;2.072;2023-05-06T11:15:24;0.95;;;0.60;;
56039;SDS011;43937;41.366;2.072;2023-05-06T11:17:53;1.30;;;0.68;;
56039;SDS011;43937;41.366;2.072;2023-05-06T11:20:23;1.35;;;0.60;;
56039;SDS011;43937;41.366;2.072;2023-05-06T11:22:50;0.70;;;0.60;;
56039;SDS011;43937;41.366;2.072;2023-05-06T11:28:14;2.10;;;0.98;;
56039;SDS011;43937;41.366;2.072;2023-05-06T11:30:41;2.47;;;1.63;;
56039;SDS011;43937;41.366;2.072;2023-05-06T11:33:09;18.00;;;1.75;;
56039;SDS011;43937;41.366;2.072;2023-05-06T11:35:41;1.42;;;1.02;;
56039;SDS011;43937;41.366;2.072;2023-05-06T11:38:07;0.88;;;0.75;;
56039;SDS011;43937;41.366;2.072;2023-05-06T11:40:32;8.65;;;1.83;;
56039;SDS011;43937;41.366;2.072;2023-05-06T11:43:18;1.38;;;0.85;;
56039;SDS011;43937;41.366;2.072;2023-05-06T11:45:44;6.95;;;2.05;;
56039;SDS011;43937;41.366;2.072;2023-05-06T11:48:11;1.23;;;0.85;;
56039;SDS011;43937;41.366;2.072;2023-05-06T11:50:37;1.38;;;0.73;;
56039;SDS011;43937;41.366;2.072;2023-05-06T11:54:51;1.02;;;0.85;;
56039;SDS011;43937;41.366;2.072;2023-05-06T11:57:19;2.50;;;0.90;;
56039;SDS011;43937;41.366;2.072;2023-05-06T11:59:45;1.95;;;0.85;;
56039;SDS011;43937;41.366;2.072;2023-05-06T12:02:11;1.08;;;0.50;;
56039;SDS011;43937;41.366;2.072;2023-05-06T12:04:38;2.45;;;1.00;;
56039;SDS011;43937;41.366;2.072;2023-05-06T12:07:06;3.28;;;1.13;;
56039;SDS011;43937;41.366;2.072;2023-05-06T12:09:36;0.32;;;0.32;;
56039;SDS011;43937;41.366;2.072;2023-05-06T12:12:03;0.93;;;0.60;;
56039;SDS011;43937;41.366;2.072;2023-05-06T12:15:35;2.97;;;0.50;;
56039;SDS011;43937;41.366;2.072;2023-05-06T12:18:01;1.00;;;0.80;;
56039;SDS011;43937;41.366;2.072;2023-05-06T12:20:27;1.90;;;1.08;;
56039;SDS011;43937;41.366;2.072;2023-05-06T12:23:09;0.90;;;0.90;;
56039;SDS011;43937;41.366;2.072;2023-05-06T12:25:36;1.05;;;0.70;;
56039;SDS011;43937;41.366;2.072;2023-05-06T12:28:12;2.92;;;0.95;;
56039;SDS011;43937;41.366;2.072;2023-05-06T12:30:38;0.82;;;0.82;;
56039;SDS011;43937;41.366;2.072;2023-05-06T12:33:05;2.90;;;1.10;;
56039;SDS011;43937;41.366;2.072;2023-05-06T12:35:31;0.40;;;0.40;;
56039;SDS011;43937;41.366;2.072;2023-05-06T12:38:06;3.80;;;0.90;;
56039;SDS011;43937;41.366;2.072;2023-05-06T12:40:35;1.65;;;1.00;;
56039;SDS011;43937;41.366;2.072;2023-05-06T12:43:16;1.33;;;0.90;;
56039;SDS011;43937;41.366;2.072;2023-05-06T12:45:41;0.88;;;0.88;;
56039;SDS011;43937;41.366;2.072;2023-05-06T12:48:41;2.10;;;1.50;;
56039;SDS011;43937;41.366;2.072;2023-05-06T12:51:20;1.45;;;1.35;;
56039;SDS011;43937;41.366;2.072;2023-05-06T12:53:46;2.85;;;1.50;;
56039;SDS011;43937;41.366;2.072;2023-05-06T12:56:11;2.35;;;1.25;;
56039;SDS011;43937;41.366;2.072;2023-05-06T12:58:37;3.53;;;1.60;;
56039;SDS011;43937;41.366;2.072;2023-05-06T13:01:03;1.30;;;0.93;;
56039;SDS011;43937;41.366;2.072;2023-05-06T13:03:30;9.15;;;1.75;;
56039;SDS011;43937;41.366;2.072;2023-05-06T13:05:55;3.22;;;2.08;;
56039;SDS011;43937;41.366;2.072;2023-05-06T13:08:21;2.30;;;1.98;;
56039;SDS011;43937;41.366;2.072;2023-05-06T13:10:46;2.83;;;1.38;;
56039;SDS011;43937;41.366;2.072;2023-05-06T13:13:12;2.63;;;1.95;;
56039;SDS011;43937;41.366;2.072;2023-05-06T13:15:37;1.75;;;1.65;;
56039;SDS011;43937;41.366;2.072;2023-05-06T13:18:03;1.27;;;1.17;;
56039;SDS011;43937;41.366;2.072;2023-05-06T13:20:30;2.00;;;1.67;;
56039;SDS011;43937;41.366;2.072;2023-05-06T13:22:56;6.47;;;1.63;;
56039;SDS011;43937;41.366;2.072;2023-05-06T13:25:22;9.13;;;5.43;;
56039;SDS011;43937;41.366;2.072;2023-05-06T13:28:26;6.30;;;4.90;;
56039;SDS011;43937;41.366;2.072;2023-05-06T13:30:51;1.58;;;1.45;;
56039;SDS011;43937;41.366;2.072;2023-05-06T13:33:17;2.60;;;1.25;;
56039;SDS011;43937;41.366;2.072;2023-05-06T13:35:43;1.50;;;0.85;;
56039;SDS011;43937;41.366;2.072;2023-05-06T13:38:08;0.93;;;0.80;;
56039;SDS011;43937;41.366;2.072;2023-05-06T13:40:33;1.13;;;0.88;;
56039;SDS011;43937;41.366;2.072;2023-05-06T13:42:59;1.08;;;0.88;;
56039;SDS011;43937;41.366;2.072;2023-05-06T13:45:24;0.95;;;0.90;;
56039;SDS011;43937;41.366;2.072;2023-05-06T13:47:50;3.35;;;1.58;;
56039;SDS011;43937;41.366;2.072;2023-05-06T13:50:15;1.00;;;0.82;;
56039;SDS011;43937;41.366;2.072;2023-05-06T13:52:41;1.30;;;1.20;;
56039;SDS011;43937;41.366;2.072;2023-05-06T13:55:06;1.25;;;1.15;;
56039;SDS011;43937;41.366;2.072;2023-05-06T13:57:32;1.88;;;0.80;;
56039;SDS011;43937;41.366;2.072;2023-05-06T13:59:58;1.00;;;0.65;;
56039;SDS011;43937;41.366;2.072;2023-05-06T14:02:23;1.33;;;0.85;;
56039;SDS011;43937;41.366;2.072;2023-05-06T14:04:50;0.98;;;0.55;;
56039;SDS011;43937;41.366;2.072;2023-05-06T14:07:15;1.05;;;0.77;;
56039;SDS011;43937;41.366;2.072;2023-05-06T14:11:22;0.30;;;0.30;;
56039;SDS011;43937;41.366;2.072;2023-05-06T14:13:48;0.80;;;0.70;;
56039;SDS011;43937;41.366;2.072;2023-05-06T14:16:13;0.90;;;0.60;;
56039;SDS011;43937;41.366;2.072;2023-05-06T14:18:40;0.98;;;0.60;;
56039;SDS011;43937;41.366;2.072;2023-05-06T14:21:06;4.90;;;1.02;;
56039;SDS011;43937;41.366;2.072;2023-05-06T14:23:32;1.00;;;0.90;;
56039;SDS011;43937;41.366;2.072;2023-05-06T14:25:57;0.70;;;0.70;;
56039;SDS011;43937;41.366;2.072;2023-05-06T14:28:23;0.63;;;0.63;;
56039;SDS011;43937;41.366;2.072;2023-05-06T14:31:31;0.98;;;0.68;;
56039;SDS011;43937;41.366;2.072;2023-05-06T14:33:57;2.38;;;0.80;;
56039;SDS011;43937;41.366;2.072;2023-05-06T14:36:23;1.58;;;0.70;;
56039;SDS011;43937;41.366;2.072;2023-05-06T14:38:48;0.75;;;0.65;;
56039;SDS011;43937;41.366;2.072;2023-05-06T14:41:14;1.58;;;1.02;;
56039;SDS011;43937;41.366;2.072;2023-05-06T14:43:39;1.70;;;0.90;;
56039;SDS011;43937;41.366;2.072;2023-05-06T14:46:04;1.05;;;0.65;;
56039;SDS011;43937;41.366;2.072;2023-05-06T14:48:30;0.50;;;0.50;;
56039;SDS011;43937;41.366;2.072;2023-05-06T14:50:56;0.68;;;0.68;;
56039;SDS011;43937;41.366;2.072;2023-05-06T14:53:21;1.10;;;0.57;;
56039;SDS011;43937;41.366;2.072;2023-05-06T14:55:46;1.33;;;0.60;;
56039;SDS011;43937;41.366;2.072;2023-05-06T14:58:13;6.93;;;0.40;;
56039;SDS011;43937;41.366;2.072;2023-05-06T15:00:38;0.30;;;0.30;;
56039;SDS011;43937;41.366;2.072;2023-05-06T15:03:04;1.33;;;0.65;;
56039;SDS011;43937;41.366;2.072;2023-05-06T15:05:29;1.60;;;1.00;;
56039;SDS011;43937;41.366;2.072;2023-05-06T15:07:55;4.07;;;1.48;;
56039;SDS011;43937;41.366;2.072;2023-05-06T15:10:20;0.60;;;0.60;;
56039;SDS011;43937;41.366;2.072;2023-05-06T15:12:46;1.80;;;1.70;;
56039;SDS011;43937;41.366;2.072;2023-05-06T15:15:11;0.88;;;0.52;;
56039;SDS011;43937;41.366;2.072;2023-05-06T15:17:37;0.93;;;0.60;;